Time;durP1;ratioP1;P1;durP2;ratioP2;P2;SDS_P1;SDS_P2;PMS_P1;PMS_P2;Temp;Humidity;BMP_temperature;BMP_pressure;BME280_temperature;BME280_humidity;BME280_pressure;Samples;Min_cycle;Max_cycle;Signal;HPM_P1;HPM_P2
2021/12/19 00:00:09;;;;;;;6.53;3.70;;;;;;;1.42;86.64;99895.16;1689163;83;21564;-59
2021/12/19 00:03:03;;;;;;;5.95;3.52;;;;;;;1.48;86.65;99897.74;1670095;85;21609;-60
2021/12/19 00:10:55;;;;;;;10.15;4.97;;;;;;;1.53;86.43;99881.44;1679539;84;21072;-60
2021/12/19 00:13:27;;;;;;;8.00;4.10;;;;;;;1.56;86.39;99878.43;1678223;84;21499;-58
2021/12/19 00:15:58;;;;;;;6.00;3.62;;;;;;;1.58;86.28;99876.93;1679506;85;21081;-59
2021/12/19 00:18:27;;;;;;;9.25;5.17;;;;;;;1.61;86.25;99869.02;1679466;84;22084;-60
2021/12/19 00:20:56;;;;;;;9.87;4.50;;;;;;;1.62;86.25;99869.38;1679569;85;21584;-60
2021/12/19 00:23:27;;;;;;;8.78;5.33;;;;;;;1.61;86.16;99865.83;1676788;85;21058;-60
2021/12/19 00:25:55;;;;;;;8.98;4.60;;;;;;;1.59;86.14;99866.48;1635446;86;21495;-59
2021/12/19 00:28:25;;;;;;;6.10;3.62;;;;;;;1.61;86.21;99860.92;1646433;85;21201;-59
2021/12/19 00:30:54;;;;;;;9.45;4.00;;;;;;;1.60;86.13;99858.72;1662719;85;21185;-60
2021/12/19 00:33:24;;;;;;;6.90;4.08;;;;;;;1.58;86.16;99839.13;1662760;86;21154;-59
2021/12/19 00:35:53;;;;;;;8.25;5.10;;;;;;;1.58;86.24;99839.98;1662730;86;21098;-60
2021/12/19 00:38:23;;;;;;;9.80;4.90;;;;;;;1.60;86.23;99833.08;1662808;85;21074;-60
2021/12/19 00:40:52;;;;;;;7.42;3.92;;;;;;;1.64;86.17;99828.22;1662770;85;21039;-60
2021/12/19 00:43:45;;;;;;;7.85;3.60;;;;;;;1.64;86.12;99814.21;1670124;84;21069;-60
2021/12/19 00:45:54;;;;;;;9.68;4.47;;;;;;;1.66;86.13;99814.06;1672811;85;21160;-60
2021/12/19 00:48:24;;;;;;;9.83;5.30;;;;;;;1.66;86.04;99810.01;1663009;85;21061;-59
2021/12/19 00:50:55;;;;;;;7.65;4.80;;;;;;;1.65;86.04;99802.91;1662849;85;21072;-60
2021/12/19 00:53:24;;;;;;;10.32;4.17;;;;;;;1.67;86.09;99788.75;1662854;86;21052;-59
2021/12/19 00:55:54;;;;;;;6.92;4.22;;;;;;;1.69;86.08;99792.14;1653176;86;21095;-59
2021/12/19 00:58:23;;;;;;;8.05;5.30;;;;;;;1.67;86.05;99787.41;1641982;87;21113;-59
2021/12/19 01:00:53;;;;;;;7.35;4.12;;;;;;;1.64;86.02;99769.66;1647269;86;21096;-59
2021/12/19 01:03:23;;;;;;;9.45;4.50;;;;;;;1.65;86.09;99770.52;1699013;83;21602;-61
2021/12/19 01:05:52;;;;;;;7.58;4.03;;;;;;;1.69;86.09;99769.19;1699066;84;21101;-60
2021/12/19 01:08:22;;;;;;;8.28;4.67;;;;;;;1.69;85.98;99763.79;1685923;85;21099;-59
2021/12/19 01:10:51;;;;;;;8.60;5.15;;;;;;;1.68;86.08;99766.14;1637602;86;21097;-59
2021/12/19 01:13:21;;;;;;;9.10;5.35;;;;;;;1.66;86.12;99765.45;1667003;84;21257;-59
2021/12/19 01:15:53;;;;;;;9.45;4.92;;;;;;;1.68;86.19;99751.30;1665438;85;21690;-60
2021/12/19 01:18:23;;;;;;;9.98;4.92;;;;;;;1.70;86.19;99756.04;1666383;85;21173;-59
2021/12/19 01:20:53;;;;;;;10.20;5.28;;;;;;;1.70;86.21;99742.03;1689376;83;21117;-59
2021/12/19 01:23:24;;;;;;;9.38;5.33;;;;;;;1.71;86.16;99736.98;1665467;85;21104;-60
2021/12/19 01:25:53;;;;;;;9.40;6.08;;;;;;;1.69;86.20;99719.23;1665536;86;21092;-60
2021/12/19 01:28:21;;;;;;;8.18;5.03;;;;;;;1.70;86.28;99716.88;1689332;85;21078;-58
2021/12/19 01:30:51;;;;;;;6.30;4.28;;;;;;;1.70;86.23;99710.98;1689514;83;21618;-59
2021/12/19 01:33:20;;;;;;;10.08;5.42;;;;;;;1.72;86.22;99706.77;1688286;83;21061;-60
2021/12/19 01:35:48;;;;;;;9.18;5.30;;;;;;;1.69;86.05;99700.34;1613341;88;21046;-58
2021/12/19 01:38:20;;;;;;;9.35;6.08;;;;;;;1.67;86.05;99692.90;1665309;86;21596;-65
2021/12/19 01:40:49;;;;;;;10.98;5.45;;;;;;;1.66;86.08;99685.80;1667122;85;21566;-59
2021/12/19 01:43:24;;;;;;;8.40;5.22;;;;;;;1.63;86.09;99669.92;1665618;86;21071;-59
2021/12/19 01:45:55;;;;;;;8.70;4.92;;;;;;;1.62;86.10;99670.92;1665417;85;21114;-57
2021/12/19 01:48:24;;;;;;;10.25;6.15;;;;;;;1.61;86.26;99651.69;1665511;85;21086;-58
2021/12/19 01:50:53;;;;;;;10.45;5.90;;;;;;;1.59;86.31;99641.89;1665426;85;21083;-58
2021/12/19 01:53:23;;;;;;;7.12;4.58;;;;;;;1.59;86.40;99639.19;1665484;86;21153;-59
2021/12/19 01:55:52;;;;;;;6.58;4.53;;;;;;;1.62;86.45;99632.63;1665445;86;22168;-59
2021/12/19 01:58:21;;;;;;;8.85;5.65;;;;;;;1.59;86.41;99622.99;1665562;85;21545;-59
2021/12/19 02:00:54;;;;;;;9.90;5.67;;;;;;;1.59;86.55;99620.29;1687953;85;21093;-56
2021/12/19 02:03:24;;;;;;;10.13;6.20;;;;;;;1.58;86.63;99611.84;1665575;85;21147;-58
2021/12/19 02:05:54;;;;;;;14.63;5.40;;;;;;;1.57;86.59;99602.56;1664044;86;21770;-57
2021/12/19 02:08:25;;;;;;;7.72;4.80;;;;;;;1.58;86.61;99602.91;1654433;87;21120;-58
2021/12/19 02:10:54;;;;;;;7.95;4.70;;;;;;;1.56;86.63;99600.36;1654464;87;21077;-58
2021/12/19 02:13:24;;;;;;;8.75;5.17;;;;;;;1.54;86.67;99584.83;1661214;85;21052;-59
2021/12/19 02:15:54;;;;;;;8.13;4.80;;;;;;;1.55;86.75;99576.23;1665611;86;21552;-59
2021/12/19 02:18:23;;;;;;;7.53;4.35;;;;;;;1.55;86.80;99570.33;1668977;85;21176;-59
2021/12/19 02:20:56;;;;;;;8.45;4.33;;;;;;;1.56;86.83;99578.77;1689425;84;21109;-60
2021/12/19 02:23:27;;;;;;;6.03;4.12;;;;;;;1.56;86.81;99569.83;1689577;85;21057;-59
2021/12/19 02:25:56;;;;;;;8.23;4.70;;;;;;;1.56;86.87;99566.63;1689360;83;21077;-59
2021/12/19 02:28:26;;;;;;;9.05;4.42;;;;;;;1.56;86.92;99561.22;1689308;84;21145;-59
2021/12/19 02:30:55;;;;;;;6.87;3.87;;;;;;;1.58;86.97;99563.76;1689579;83;21038;-58
2021/12/19 02:33:26;;;;;;;5.47;3.90;;;;;;;1.65;87.01;99562.61;1689147;83;21513;-58
2021/12/19 02:36:07;;;;;;;7.75;4.55;;;;;;;1.63;86.88;99560.58;1689500;85;21605;-57
2021/12/19 02:49:35;;;;;;;9.45;4.97;;;;;;;1.61;87.14;99523.45;1689423;83;21157;-59
2021/12/19 02:52:13;;;;;;;9.65;4.85;;;;;;;1.61;87.26;99520.75;1689587;83;21038;-59
2021/12/19 02:54:42;;;;;;;10.65;5.87;;;;;;;1.61;87.27;99516.70;1689682;83;21081;-60
2021/12/19 02:57:11;;;;;;;9.50;5.37;;;;;;;1.59;87.32;99508.25;1686403;84;21092;-58
2021/12/19 02:59:42;;;;;;;11.40;7.42;;;;;;;1.60;87.38;99514.50;1665399;85;21075;-59
2021/12/19 03:02:13;;;;;;;8.20;4.40;;;;;;;1.59;87.49;99498.80;1665688;85;21593;-60
2021/12/19 03:05:00;;;;;;;8.83;4.00;;;;;;;1.60;87.47;99494.25;1665495;85;21594;-58
2021/12/19 03:07:30;;;;;;;10.32;5.80;;;;;;;1.60;87.47;99490.20;1665709;85;21071;-59
2021/12/19 03:13:03;;;;;;;13.40;7.67;;;;;;;1.61;87.62;99469.45;1665395;85;21200;-58
2021/12/19 03:18:09;;;;;;;7.25;4.08;;;;;;;1.58;87.70;99463.38;1683121;83;21088;-58
2021/12/19 03:20:41;;;;;;;11.20;6.05;;;;;;;1.57;87.72;99472.48;1689357;84;21062;-59
2021/12/19 03:23:13;;;;;;;9.80;5.87;;;;;;;1.56;87.80;99458.64;1689382;85;21042;-59
2021/12/19 03:25:42;;;;;;;9.68;6.25;;;;;;;1.56;87.90;99447.84;1678148;84;21577;-58
2021/12/19 03:28:12;;;;;;;7.58;4.50;;;;;;;1.57;87.92;99444.13;1621027;88;21616;-57
2021/12/19 03:30:44;;;;;;;9.03;4.47;;;;;;;1.58;87.94;99447.68;1648505;86;21640;-58
2021/12/19 03:33:13;;;;;;;6.30;3.67;;;;;;;1.60;87.99;99442.96;1621103;88;21082;-57
2021/12/19 03:35:43;;;;;;;8.23;4.70;;;;;;;1.59;88.01;99427.27;1649848;85;21099;-60
2021/12/19 03:38:14;;;;;;;8.78;5.55;;;;;;;1.54;88.08;99420.17;1632398;88;21058;-58
2021/12/19 03:40:51;;;;;;;8.35;4.17;;;;;;;1.57;88.23;99415.79;1654675;84;21490;-59
2021/12/19 03:43:19;;;;;;;6.22;3.77;;;;;;;1.61;88.23;99406.01;1615005;88;21499;-58
2021/12/19 03:45:49;;;;;;;5.92;3.92;;;;;;;1.60;88.18;99399.77;1638328;85;21114;-58
2021/12/19 03:48:19;;;;;;;9.30;4.78;;;;;;;1.58;88.33;99391.84;1621305;87;21046;-56
2021/12/19 03:50:52;;;;;;;16.23;8.83;;;;;;;1.56;88.50;99378.16;1664846;86;21039;-60
2021/12/19 03:53:25;;;;;;;10.75;5.78;;;;;;;1.56;88.63;99384.91;1637123;86;21627;-58
2021/12/19 03:55:51;;;;;;;6.35;4.20;;;;;;;1.59;88.80;99367.87;1616954;88;21067;-59
2021/12/19 03:58:22;;;;;;;5.83;4.10;;;;;;;1.62;88.79;99365.86;1603534;88;21521;-60
2021/12/19 04:00:53;;;;;;;9.13;5.58;;;;;;;1.62;88.86;99372.10;1649933;85;21063;-59
2021/12/19 04:03:23;;;;;;;7.90;4.60;;;;;;;1.63;88.97;99350.84;1631975;88;21098;-59
2021/12/19 04:05:52;;;;;;;7.70;4.37;;;;;;;1.65;89.09;99342.58;1638292;85;21066;-60
2021/12/19 04:08:23;;;;;;;8.38;4.55;;;;;;;1.65;89.06;99342.07;1620726;88;21023;-60
2021/12/19 04:10:53;;;;;;;10.15;5.28;;;;;;;1.68;89.11;99334.98;1659983;85;21136;-59
2021/12/19 04:13:23;;;;;;;9.38;6.00;;;;;;;1.68;89.16;99328.74;1636286;88;21078;-59
2021/12/19 04:15:52;;;;;;;8.20;4.67;;;;;;;1.70;89.28;99320.81;1650565;86;21732;-60
2021/12/19 04:18:21;;;;;;;7.55;4.05;;;;;;;1.75;89.31;99323.01;1630819;86;21118;-60
2021/12/19 04:20:50;;;;;;;8.33;5.05;;;;;;;1.75;89.23;99309.52;1664847;86;21696;-59
2021/12/19 04:23:18;;;;;;;9.90;5.75;;;;;;;1.74;89.27;99299.72;1628662;88;21502;-59
2021/12/19 04:25:47;;;;;;;8.75;4.62;;;;;;;1.76;89.39;99300.40;1663112;86;21074;-59
2021/12/19 04:28:15;;;;;;;7.58;3.95;;;;;;;1.77;89.37;99299.39;1629455;88;21467;-60
2021/12/19 04:30:46;;;;;;;7.05;3.60;;;;;;;1.78;89.39;99294.32;1650780;86;21090;-59
2021/12/19 04:33:16;;;;;;;8.00;4.20;;;;;;;1.79;89.47;99293.31;1629814;88;21477;-58
2021/12/19 04:35:45;;;;;;;7.28;4.15;;;;;;;1.79;89.55;99291.96;1642787;86;21027;-61
2021/12/19 04:51:40;;;;;;;7.25;4.10;;;;;;;1.79;90.14;99268.50;1647370;86;21134;-60
2021/12/19 04:56:42;;;;;;;7.75;4.75;;;;;;;1.77;90.53;99242.17;1669617;85;21042;-60
2021/12/19 05:04:24;;;;;;;8.60;5.10;;;;;;;1.76;90.99;99219.39;1634544;86;21066;-59
2021/12/19 05:14:01;;;;;;;7.87;4.58;;;;;;;1.76;91.16;99225.64;1653896;86;21214;-60
2021/12/19 05:14:53;;;;;;;5.53;3.42;;;;;;;1.81;91.36;99207.57;1657182;86;20259;-60
2021/12/19 05:17:26;;;;;;;8.00;5.33;;;;;;;1.84;91.53;99195.92;1667670;86;21478;-59
2021/12/19 05:20:08;;;;;;;7.20;4.45;;;;;;;1.87;91.58;99183.93;1615060;87;21086;-60
2021/12/19 05:22:27;;;;;;;8.05;3.83;;;;;;;1.91;91.58;99190.67;1671634;86;21047;-61
2021/12/19 05:25:01;;;;;;;7.72;4.92;;;;;;;1.93;91.50;99171.59;1630184;86;21086;-59
2021/12/19 05:27:30;;;;;;;10.25;5.28;;;;;;;1.91;91.50;99165.02;1676333;84;21497;-59
2021/12/19 05:30:00;;;;;;;9.08;4.35;;;;;;;1.89;91.57;99161.65;1640068;86;21022;-59
2021/12/19 05:32:29;;;;;;;8.98;4.92;;;;;;;1.90;91.58;99156.58;1649431;86;21529;-60
2021/12/19 05:34:58;;;;;;;6.95;4.40;;;;;;;1.90;91.58;99156.58;1618871;87;21062;-61
2021/12/19 05:45:51;;;;;;;7.72;5.20;;;;;;;1.96;91.74;99145.12;1646243;86;20238;-59
2021/12/19 05:48:19;;;;;;;12.50;6.92;;;;;;;1.98;91.81;99145.78;1637075;87;21361;-62
2021/12/19 05:50:49;;;;;;;9.55;5.62;;;;;;;2.00;91.82;99135.66;1665203;86;21528;-62
2021/12/19 05:53:17;;;;;;;8.60;4.83;;;;;;;2.03;91.80;99114.20;1619167;86;21161;-60
2021/12/19 05:55:47;;;;;;;8.43;5.05;;;;;;;2.06;91.77;99104.39;1653813;86;22202;-59
2021/12/19 05:58:16;;;;;;;10.50;4.95;;;;;;;2.07;91.77;99102.88;1637018;87;21081;-61
2021/12/19 06:00:45;;;;;;;11.38;6.75;;;;;;;2.05;91.77;99090.05;1646295;86;21542;-61
2021/12/19 06:03:15;;;;;;;8.73;4.85;;;;;;;2.09;91.86;99093.23;1626111;86;21558;-61
2021/12/19 06:05:45;;;;;;;8.08;4.55;;;;;;;2.12;91.90;99089.67;1662209;84;21116;-60
2021/12/19 06:08:14;;;;;;;9.35;4.47;;;;;;;2.12;91.76;99088.33;1624686;88;21498;-65
2021/12/19 06:10:45;;;;;;;12.65;5.87;;;;;;;2.12;91.77;99073.98;1657639;86;21201;-61
2021/12/19 06:13:14;;;;;;;8.83;4.45;;;;;;;2.13;91.87;99063.50;1611838;88;21542;-60
2021/12/19 06:15:44;;;;;;;8.35;4.92;;;;;;;2.14;91.88;99053.88;1665170;86;21479;-62
2021/12/19 06:18:12;;;;;;;8.43;5.12;;;;;;;2.15;91.89;99060.95;1636866;88;21300;-62
2021/12/19 06:20:42;;;;;;;8.40;5.28;;;;;;;2.17;91.95;99064.83;1647402;86;21676;-59
2021/12/19 06:23:11;;;;;;;10.68;5.62;;;;;;;2.17;91.96;99051.33;1610869;88;21190;-62
2021/12/19 06:25:45;;;;;;;9.45;5.08;;;;;;;2.16;92.02;99063.15;1677695;85;21107;-61
2021/12/19 06:28:17;;;;;;;6.00;3.92;;;;;;;2.16;92.01;99063.99;1637515;88;21182;-61
2021/12/19 06:30:48;;;;;;;9.85;4.90;;;;;;;2.17;92.07;99062.97;1666395;85;21562;-61
2021/12/19 06:33:17;;;;;;;9.05;5.83;;;;;;;2.19;92.17;99058.23;1610554;88;21065;-62
2021/12/19 06:35:46;;;;;;;8.95;4.72;;;;;;;2.19;92.22;99050.13;1665218;85;21297;-64
2021/12/19 06:38:17;;;;;;;8.80;4.78;;;;;;;2.22;92.23;99037.61;1626356;86;21100;-60
2021/12/19 06:40:46;;;;;;;8.78;5.35;;;;;;;2.25;92.25;99029.66;1649555;85;21106;-60
2021/12/19 06:43:17;;;;;;;9.35;5.72;;;;;;;2.27;92.32;99009.22;1610266;88;21730;-61
2021/12/19 06:45:47;;;;;;;10.13;5.83;;;;;;;2.29;92.35;99004.47;1665399;85;21548;-60
2021/12/19 06:48:18;;;;;;;12.63;5.90;;;;;;;2.31;92.35;98995.67;1627298;88;21030;-61
2021/12/19 06:50:48;;;;;;;10.93;6.17;;;;;;;2.35;92.41;98978.08;1665184;85;21066;-60
2021/12/19 06:53:17;;;;;;;10.50;6.42;;;;;;;2.34;92.36;98965.08;1625926;88;21610;-62
2021/12/19 06:55:46;;;;;;;10.72;5.75;;;;;;;2.32;92.33;98962.23;1653509;84;21690;-62
2021/12/19 06:58:15;;;;;;;8.65;4.90;;;;;;;2.31;92.39;98960.03;1628092;88;21564;-60
2021/12/19 07:00:44;;;;;;;11.00;5.65;;;;;;;2.32;92.39;98959.53;1637563;86;21098;-60
2021/12/19 07:03:16;;;;;;;12.90;7.90;;;;;;;2.32;92.44;98954.13;1620974;88;21208;-60
2021/12/19 07:05:44;;;;;;;13.68;6.85;;;;;;;2.31;92.54;98982.16;1660240;85;21487;-60
2021/12/19 07:08:14;;;;;;;10.15;5.80;;;;;;;2.32;92.61;98987.91;1645930;86;21068;-61
2021/12/19 07:10:44;;;;;;;9.75;5.40;;;;;;;2.35;92.62;98992.95;1642949;86;21179;-61
2021/12/19 07:13:18;;;;;;;11.40;5.45;;;;;;;2.37;92.62;99006.61;1660335;85;21099;-59
2021/12/19 07:15:43;;;;;;;7.30;4.55;;;;;;;2.39;92.65;98996.97;1638157;87;21019;-62
2021/12/19 07:18:12;;;;;;;11.43;6.05;;;;;;;2.37;92.69;98994.96;1655517;84;21090;-61
2021/12/19 07:20:42;;;;;;;65.37;20.37;;;;;;;2.40;92.74;98993.25;1621862;87;21232;-60
2021/12/19 07:23:14;;;;;;;9.15;4.55;;;;;;;2.44;92.79;98982.41;1655664;86;21071;-61
2021/12/19 07:25:43;;;;;;;9.40;5.33;;;;;;;2.44;92.72;98969.73;1625741;87;21574;-62
2021/12/19 07:28:12;;;;;;;9.45;5.47;;;;;;;2.45;92.77;98963.81;1670593;84;21106;-60
2021/12/19 07:30:42;;;;;;;11.57;5.83;;;;;;;2.43;92.83;98951.83;1628508;87;21308;-64
2021/12/19 07:33:12;;;;;;;10.50;5.35;;;;;;;2.43;92.86;98928.86;1656567;86;21066;-61
2021/12/19 07:35:45;;;;;;;11.05;6.00;;;;;;;2.45;92.88;98948.95;1614855;87;21581;-62
2021/12/19 07:38:23;;;;;;;19.57;9.30;;;;;;;2.44;92.91;98927.00;1650142;86;21630;-62
2021/12/19 07:40:47;;;;;;;12.18;6.67;;;;;;;2.44;93.02;98907.56;1640770;86;21083;-63
2021/12/19 07:43:16;;;;;;;11.75;6.55;;;;;;;2.45;93.03;98892.19;1674104;86;21058;-63
2021/12/19 07:45:45;;;;;;;13.22;7.33;;;;;;;2.44;92.95;98901.31;1660856;86;21107;-64
2021/12/19 07:48:14;;;;;;;10.98;6.45;;;;;;;2.43;93.04;98899.64;1658741;85;21169;-61
2021/12/19 07:50:43;;;;;;;12.45;6.55;;;;;;;2.44;93.16;98904.86;1625313;87;21634;-62
2021/12/19 07:53:12;;;;;;;11.25;5.83;;;;;;;2.43;93.17;98903.19;1658387;86;21508;-61
2021/12/19 07:55:41;;;;;;;13.70;7.37;;;;;;;2.44;93.25;98890.51;1624439;87;21787;-62
2021/12/19 07:58:12;;;;;;;15.10;7.58;;;;;;;2.44;93.30;98894.05;1655074;85;21155;-62
2021/12/19 08:00:40;;;;;;;13.83;6.10;;;;;;;2.45;93.45;98891.67;1662684;86;21129;-61
2021/12/19 08:03:09;;;;;;;9.95;5.80;;;;;;;2.48;93.44;98895.87;1630363;86;21141;-61
2021/12/19 08:05:38;;;;;;;11.73;6.12;;;;;;;2.50;93.49;98892.48;1660906;85;21296;-62
2021/12/19 08:08:10;;;;;;;12.45;6.30;;;;;;;2.50;93.54;98905.99;1635808;86;21150;-61
2021/12/19 08:13:07;;;;;;;10.80;5.85;;;;;;;2.53;93.69;98878.59;1622385;86;21491;-62
2021/12/19 08:15:36;;;;;;;12.28;5.92;;;;;;;2.57;93.66;98881.77;1653937;86;21058;-60
2021/12/19 08:18:05;;;;;;;10.20;5.30;;;;;;;2.61;93.70;98869.59;1651399;86;21082;-61
2021/12/19 08:20:34;;;;;;;11.63;6.00;;;;;;;2.63;93.67;98856.73;1614989;88;21257;-60
2021/12/19 08:23:03;;;;;;;12.50;6.35;;;;;;;2.66;93.66;98855.84;1653714;86;21487;-62
2021/12/19 08:25:35;;;;;;;10.78;5.15;;;;;;;2.67;93.58;98860.23;1622829;86;21042;-60
2021/12/19 08:28:05;;;;;;;11.45;5.50;;;;;;;2.70;93.63;98854.45;1649433;86;21130;-60
2021/12/19 08:30:36;;;;;;;12.93;5.95;;;;;;;2.72;93.71;98852.92;1623814;86;21071;-61
2021/12/19 08:33:05;;;;;;;12.93;5.78;;;;;;;2.74;93.75;98860.33;1652959;86;21150;-61
2021/12/19 08:35:34;;;;;;;12.05;5.62;;;;;;;2.76;93.81;98856.42;1624651;88;21046;-62
2021/12/19 08:38:03;;;;;;;13.13;6.90;;;;;;;2.79;93.79;98849.80;1661607;85;21538;-61
2021/12/19 08:40:33;;;;;;;9.85;5.35;;;;;;;2.81;93.82;98848.59;1636476;86;21070;-61
2021/12/19 08:43:01;;;;;;;11.03;5.20;;;;;;;2.80;93.64;98842.85;1649431;84;22071;-62
2021/12/19 08:45:31;;;;;;;11.57;5.80;;;;;;;2.79;93.57;98843.88;1621265;88;21058;-60
2021/12/19 08:48:00;;;;;;;13.35;6.62;;;;;;;2.78;93.50;98831.89;1651004;84;21075;-61
2021/12/19 08:50:30;;;;;;;12.78;6.20;;;;;;;2.78;93.51;98831.89;1621540;88;21094;-60
2021/12/19 08:53:00;;;;;;;13.58;6.17;;;;;;;2.77;93.49;98822.94;1652126;86;21241;-60
2021/12/19 08:55:32;;;;;;;11.15;5.80;;;;;;;2.80;93.55;98816.32;1627958;86;21478;-60
2021/12/19 08:58:02;;;;;;;12.50;5.97;;;;;;;2.80;93.31;98812.27;1671961;85;21082;-60
2021/12/19 09:00:31;;;;;;;10.43;4.65;;;;;;;2.78;93.35;98813.80;1635418;86;21066;-62
2021/12/19 09:03:00;;;;;;;11.33;5.28;;;;;;;2.79;93.35;98805.17;1663429;85;21097;-60
2021/12/19 09:05:29;;;;;;;9.00;4.42;;;;;;;2.79;93.26;98797.90;1625713;84;21110;-60
2021/12/19 09:07:58;;;;;;;8.80;4.58;;;;;;;2.80;93.09;98792.81;1662318;86;21058;-62
2021/12/19 09:10:27;;;;;;;12.35;5.62;;;;;;;2.79;92.96;98788.95;1623260;87;21045;-61
2021/12/19 09:12:57;;;;;;;9.58;4.50;;;;;;;2.77;92.94;98789.14;1663100;86;21605;-61
2021/12/19 09:15:26;;;;;;;9.65;4.45;;;;;;;2.77;92.92;98799.11;1640338;87;21605;-60
2021/12/19 09:17:55;;;;;;;11.18;4.75;;;;;;;2.76;92.83;98782.05;1656179;84;21070;-60
2021/12/19 09:20:24;;;;;;;8.23;4.17;;;;;;;2.75;92.76;98786.30;1636181;87;21455;-60
2021/12/19 09:22:52;;;;;;;9.75;4.53;;;;;;;2.67;92.19;98781.83;1662593;86;21097;-61
2021/12/19 09:25:22;;;;;;;8.98;4.45;;;;;;;2.63;92.15;98775.63;1641589;86;21147;-62
2021/12/19 09:27:55;;;;;;;11.48;4.75;;;;;;;2.61;92.16;98773.11;1664859;84;21555;-63
2021/12/19 09:30:30;;;;;;;8.80;5.05;;;;;;;2.57;92.05;98763.66;1665177;85;21548;-62
2021/12/19 09:33:01;;;;;;;9.50;4.95;;;;;;;2.54;92.22;98767.58;1672216;84;21082;-61
2021/12/19 09:35:31;;;;;;;9.63;4.97;;;;;;;2.55;92.12;98761.14;1665038;84;21636;-60
2021/12/19 09:38:00;;;;;;;10.68;5.03;;;;;;;2.49;91.90;98754.30;1639903;87;21184;-64
2021/12/19 09:40:35;;;;;;;11.70;5.40;;;;;;;2.44;91.91;98746.75;1676257;83;21088;-60
2021/12/19 09:43:21;;;;;;;8.48;4.17;;;;;;;2.38;91.86;98750.70;1679909;84;21497;-60
2021/12/19 09:45:40;;;;;;;7.15;3.72;;;;;;;2.30;91.81;98738.13;1667824;84;21483;-59
2021/12/19 09:48:09;;;;;;;10.30;4.05;;;;;;;2.28;91.85;98727.17;1637421;87;21444;-60
2021/12/19 09:50:38;;;;;;;6.87;3.67;;;;;;;2.26;91.88;98719.77;1663372;85;21091;-60
2021/12/19 09:53:06;;;;;;;8.30;4.17;;;;;;;2.26;91.97;98713.02;1629360;85;21086;-61
2021/12/19 09:55:35;;;;;;;10.40;4.58;;;;;;;2.23;91.96;98716.41;1661130;86;21672;-59
2021/12/19 09:58:04;;;;;;;7.45;3.77;;;;;;;2.20;92.00;98713.24;1631574;87;21205;-62
2021/12/19 10:00:32;;;;;;;8.68;3.77;;;;;;;2.18;92.09;98715.30;1680097;83;21497;-60
2021/12/19 10:03:01;;;;;;;9.03;3.83;;;;;;;2.15;92.18;98692.19;1634961;86;21609;-61
2021/12/19 10:05:33;;;;;;;8.80;4.20;;;;;;;2.14;92.27;98692.38;1669227;84;21357;-60
2021/12/19 10:08:06;;;;;;;10.38;3.92;;;;;;;2.16;92.40;98687.11;1631950;87;21143;-60
2021/12/19 10:10:47;;;;;;;9.45;4.45;;;;;;;2.20;92.50;98688.42;1638136;86;21480;-61
2021/12/19 10:13:17;;;;;;;9.48;4.37;;;;;;;2.23;92.62;98683.99;1633919;86;21040;-61
2021/12/19 10:15:48;;;;;;;11.08;5.47;;;;;;;2.27;92.83;98662.84;1633851;86;21119;-62
2021/12/19 10:18:17;;;;;;;7.03;3.85;;;;;;;2.33;92.98;98666.66;1630747;87;21102;-61
2021/12/19 10:20:57;;;;;;;9.95;4.08;;;;;;;2.37;93.06;98659.85;1627506;87;21048;-63
2021/12/19 10:23:30;;;;;;;8.98;4.33;;;;;;;2.40;93.19;98643.27;1627315;86;21723;-61
2021/12/19 10:26:06;;;;;;;14.00;4.72;;;;;;;2.45;93.37;98635.42;1624852;85;21261;-62
2021/12/19 10:28:54;;;;;;;8.45;4.08;;;;;;;2.51;93.55;98634.15;1609266;88;21255;-60
2021/12/19 10:31:25;;;;;;;10.70;4.83;;;;;;;2.58;93.65;98627.47;1612309;89;21098;-61
2021/12/19 10:33:54;;;;;;;8.85;4.30;;;;;;;2.66;93.83;98623.33;1628641;87;21068;-63
2021/12/19 10:36:23;;;;;;;7.83;3.80;;;;;;;2.73;94.13;98616.64;1630499;87;21194;-63
2021/12/19 10:38:56;;;;;;;7.10;3.65;;;;;;;2.80;94.24;98610.80;1659052;85;21638;-62
2021/12/19 10:41:33;;;;;;;8.70;3.65;;;;;;;2.87;94.61;98586.00;1637155;87;21205;-61
2021/12/19 10:44:04;;;;;;;7.97;3.80;;;;;;;3.05;95.04;98584.20;1664523;84;21059;-61
2021/12/19 10:46:37;;;;;;;7.55;3.60;;;;;;;3.10;94.73;98577.69;1628093;88;21092;-61
2021/12/19 10:49:32;;;;;;;7.58;3.52;;;;;;;3.11;94.60;98566.67;1652673;86;21554;-62
2021/12/19 10:52:04;;;;;;;6.35;3.65;;;;;;;3.14;94.55;98568.15;1610285;88;21430;-63
2021/12/19 10:54:35;;;;;;;7.12;3.60;;;;;;;3.18;94.55;98556.73;1657019;85;21023;-59
2021/12/19 10:57:10;;;;;;;5.70;3.10;;;;;;;3.23;94.53;98558.86;1664877;85;21063;-63
2021/12/19 10:59:45;;;;;;;5.65;3.00;;;;;;;3.34;94.98;98543.98;1664947;85;21046;-63
2021/12/19 11:02:14;;;;;;;5.58;3.00;;;;;;;3.38;94.72;98550.67;1636119;88;21473;-62
2021/12/19 11:04:44;;;;;;;5.78;2.70;;;;;;;3.39;94.32;98530.69;1677810;85;21108;-63
2021/12/19 11:07:13;;;;;;;6.70;3.08;;;;;;;3.41;94.30;98530.81;1677965;83;21069;-62
2021/12/19 11:09:42;;;;;;;9.35;4.00;;;;;;;3.46;94.30;98530.22;1600022;85;21151;-63
2021/12/19 11:12:13;;;;;;;6.92;3.40;;;;;;;3.50;94.27;98520.15;1669990;84;20999;-61
2021/12/19 11:14:44;;;;;;;6.08;2.83;;;;;;;3.56;94.25;98521.22;1658698;85;21054;-61
2021/12/19 11:17:21;;;;;;;5.97;2.85;;;;;;;3.60;93.75;98512.19;1680235;84;21030;-64
2021/12/19 11:19:55;;;;;;;7.03;2.70;;;;;;;3.62;93.41;98515.53;1657715;84;21073;-61
2021/12/19 11:22:27;;;;;;;5.15;2.47;;;;;;;3.65;93.26;98511.91;1671202;84;21046;-63
2021/12/19 11:25:01;;;;;;;6.12;3.00;;;;;;;3.68;93.01;98514.21;1675841;84;21395;-63
2021/12/19 11:27:37;;;;;;;5.20;3.02;;;;;;;3.73;92.91;98513.61;1652270;86;21524;-62
2021/12/19 11:30:10;;;;;;;5.62;3.25;;;;;;;3.76;93.12;98501.86;1672196;84;21075;-62
2021/12/19 11:33:02;;;;;;;5.47;3.98;;;;;;;3.82;93.07;98497.51;1654502;86;21204;-61
2021/12/19 11:35:36;;;;;;;8.50;3.65;;;;;;;3.86;92.62;98489.81;1654693;84;21699;-63
2021/12/19 11:38:08;;;;;;;5.33;2.87;;;;;;;3.85;92.30;98490.34;1649953;84;21569;-61
2021/12/19 11:40:37;;;;;;;9.68;5.05;;;;;;;3.85;92.13;98494.92;1679449;84;21078;-62
2021/12/19 11:43:11;;;;;;;3.37;2.02;;;;;;;3.85;91.59;98486.80;1656446;86;21509;-61
2021/12/19 11:45:51;;;;;;;6.05;3.00;;;;;;;3.86;91.17;98485.23;1658489;85;21082;-63
2021/12/19 11:48:25;;;;;;;7.87;3.30;;;;;;;3.90;91.24;98481.12;1667260;85;21293;-61
2021/12/19 11:50:55;;;;;;;4.28;2.45;;;;;;;3.91;91.25;98482.79;1657191;86;21065;-64
2021/12/19 11:53:43;;;;;;;4.08;2.37;;;;;;;3.91;90.90;98469.24;1658757;85;21539;-62
2021/12/19 11:56:16;;;;;;;6.62;3.02;;;;;;;3.93;90.76;98479.88;1653105;85;21030;-62
2021/12/19 11:58:49;;;;;;;6.60;3.30;;;;;;;3.96;90.95;98474.05;1646795;86;21109;-64
2021/12/19 12:01:29;;;;;;;5.15;2.67;;;;;;;3.98;90.98;98468.75;1652747;84;21109;-62
2021/12/19 12:04:04;;;;;;;4.30;2.25;;;;;;;4.01;91.07;98476.47;1665757;84;21066;-63
2021/12/19 12:06:41;;;;;;;5.00;2.20;;;;;;;4.25;92.66;98481.02;1653999;85;21640;-64
2021/12/19 12:09:23;;;;;;;5.90;1.75;;;;;;;4.39;91.76;98471.88;1628743;87;21109;-61
2021/12/19 12:12:07;;;;;;;4.17;2.30;;;;;;;4.35;90.56;98457.07;1645931;86;21055;-62
2021/12/19 12:14:54;;;;;;;3.92;2.10;;;;;;;4.29;89.93;98449.23;1633486;86;21499;-63
2021/12/19 12:17:39;;;;;;;3.10;1.90;;;;;;;4.21;89.38;98464.34;1667372;84;21102;-62
2021/12/19 12:20:16;;;;;;;5.53;2.12;;;;;;;4.18;89.48;98465.27;1673122;84;21158;-62
2021/12/19 12:22:53;;;;;;;5.25;2.80;;;;;;;4.16;89.36;98461.41;1634554;87;21066;-62
2021/12/19 12:25:31;;;;;;;;;;;;;;;4.14;89.21;98453.48;1665825;84;21085;-62
2021/12/19 12:28:04;;;;;;;4.35;2.12;;;;;;;4.11;89.15;98456.59;1663160;84;20201;-62
2021/12/19 12:30:50;;;;;;;3.77;1.95;;;;;;;4.08;88.94;98455.65;1624392;87;21154;-62
2021/12/19 12:33:20;;;;;;;3.72;1.80;;;;;;;4.08;88.96;98452.11;1646226;86;21099;-62
2021/12/19 12:35:52;;;;;;;3.55;1.92;;;;;;;4.07;89.04;98458.56;1624311;87;21093;-62
2021/12/19 12:38:20;;;;;;;3.17;1.90;;;;;;;4.03;89.15;98452.72;1661551;86;21210;-61
2021/12/19 12:40:58;;;;;;;3.67;2.70;;;;;;;4.03;89.18;98455.43;1640642;85;21516;-63
2021/12/19 12:43:33;;;;;;;5.53;3.17;;;;;;;4.05;89.63;98450.64;1653340;86;21066;-62
2021/12/19 12:46:11;;;;;;;;;;;;;;;4.07;89.47;98455.86;1686220;84;21234;-61
2021/12/19 12:49:00;;;;;;;3.00;1.70;;;;;;;4.05;89.54;98459.28;1666126;86;20257;-62
2021/12/19 12:51:39;;;;;;;3.45;1.50;;;;;;;4.01;89.57;98458.86;1663156;84;21099;-61
2021/12/19 12:54:14;;;;;;;3.60;2.20;;;;;;;3.98;89.65;98453.84;1643844;87;21082;-62
2021/12/19 12:56:48;;;;;;;4.20;1.98;;;;;;;3.98;89.72;98457.91;1652366;86;21106;-62